Baird, Texas
Current Conditions -  °F | °C
As of 6:52 AM on Friday 24 Oct 2014 (Local Time) from KABI Reporting Station
Haze Haze  
Wind Chill: 61°   Ceiling: Unl
Heat Index: 61°   Visibility: 6mi
Dew Point: 59°   Wind: 7mph
Humidity: 93%   Direction: 220°SW
Pressure: 30.13"   Gusts: NA
Location:  32.39°N, 99.39°W
Report Text: KABI 241152Z 22006KT 6SM BR CLR 16/15 A3013 RMK AO2 SLP182 T01610150 10183 20161 53005
Loading
Personal Weather Stations






























Interactive Weather Map New forecast layout! Learn more

10-Day Weather Forecast

Advertisements
Track Severe Weather on mobile